sensor_id;sensor_type;location;lat;lon;timestamp;P1;durP1;ratioP1;P2;durP2;ratioP2
26612;SDS011;14248;57.652;11.908;2022-12-17T00:01:03;7.65;;;4.95;;
26612;SDS011;14248;57.652;11.908;2022-12-17T00:03:48;6.70;;;5.00;;
26612;SDS011;14248;57.652;11.908;2022-12-17T00:06:32;7.68;;;5.30;;
26612;SDS011;14248;57.652;11.908;2022-12-17T00:09:17;7.57;;;5.40;;
26612;SDS011;14248;57.652;11.908;2022-12-17T00:12:01;8.52;;;5.60;;
26612;SDS011;14248;57.652;11.908;2022-12-17T00:14:46;7.43;;;5.18;;
26612;SDS011;14248;57.652;11.908;2022-12-17T00:17:31;9.02;;;5.57;;
26612;SDS011;14248;57.652;11.908;2022-12-17T00:20:15;7.07;;;4.65;;
26612;SDS011;14248;57.652;11.908;2022-12-17T00:23:00;9.05;;;5.30;;
26612;SDS011;14248;57.652;11.908;2022-12-17T00:25:48;8.02;;;4.90;;
26612;SDS011;14248;57.652;11.908;2022-12-17T00:28:33;8.55;;;4.97;;
26612;SDS011;14248;57.652;11.908;2022-12-17T00:31:18;6.65;;;4.63;;
26612;SDS011;14248;57.652;11.908;2022-12-17T00:34:03;6.40;;;4.40;;
26612;SDS011;14248;57.652;11.908;2022-12-17T00:36:47;8.20;;;4.72;;
26612;SDS011;14248;57.652;11.908;2022-12-17T00:39:32;14.45;;;7.82;;
26612;SDS011;14248;57.652;11.908;2022-12-17T00:42:16;15.82;;;8.77;;
26612;SDS011;14248;57.652;11.908;2022-12-17T00:45:01;9.75;;;6.10;;
26612;SDS011;14248;57.652;11.908;2022-12-17T00:50:30;7.53;;;4.68;;
26612;SDS011;14248;57.652;11.908;2022-12-17T00:53:15;6.38;;;4.18;;
26612;SDS011;14248;57.652;11.908;2022-12-17T00:55:59;6.47;;;4.20;;
26612;SDS011;14248;57.652;11.908;2022-12-17T00:58:44;8.02;;;4.00;;
26612;SDS011;14248;57.652;11.908;2022-12-17T01:01:28;9.05;;;4.05;;
26612;SDS011;14248;57.652;11.908;2022-12-17T01:04:13;7.55;;;4.25;;
26612;SDS011;14248;57.652;11.908;2022-12-17T01:06:59;6.15;;;3.85;;
26612;SDS011;14248;57.652;11.908;2022-12-17T01:09:44;6.38;;;4.00;;
26612;SDS011;14248;57.652;11.908;2022-12-17T01:12:29;6.55;;;4.07;;
26612;SDS011;14248;57.652;11.908;2022-12-17T01:15:13;8.18;;;4.25;;
26612;SDS011;14248;57.652;11.908;2022-12-17T01:17:58;6.07;;;3.92;;
26612;SDS011;14248;57.652;11.908;2022-12-17T01:20:42;6.93;;;4.10;;
26612;SDS011;14248;57.652;11.908;2022-12-17T01:23:27;6.95;;;3.88;;
26612;SDS011;14248;57.652;11.908;2022-12-17T01:26:11;6.68;;;3.65;;
26612;SDS011;14248;57.652;11.908;2022-12-17T01:28:56;7.32;;;3.40;;
26612;SDS011;14248;57.652;11.908;2022-12-17T01:31:41;6.63;;;4.03;;
26612;SDS011;14248;57.652;11.908;2022-12-17T01:34:26;6.28;;;3.90;;
26612;SDS011;14248;57.652;11.908;2022-12-17T01:37:10;5.72;;;3.50;;
26612;SDS011;14248;57.652;11.908;2022-12-17T01:39:55;4.93;;;3.13;;
26612;SDS011;14248;57.652;11.908;2022-12-17T01:42:41;5.50;;;3.70;;
26612;SDS011;14248;57.652;11.908;2022-12-17T01:45:26;5.75;;;3.60;;
26612;SDS011;14248;57.652;11.908;2022-12-17T01:48:15;4.82;;;3.33;;
26612;SDS011;14248;57.652;11.908;2022-12-17T01:51:00;5.45;;;3.45;;
26612;SDS011;14248;57.652;11.908;2022-12-17T01:53:47;5.60;;;3.75;;
26612;SDS011;14248;57.652;11.908;2022-12-17T01:56:32;4.65;;;3.28;;
26612;SDS011;14248;57.652;11.908;2022-12-17T01:59:19;4.78;;;3.30;;
26612;SDS011;14248;57.652;11.908;2022-12-17T02:02:05;7.13;;;4.20;;
26612;SDS011;14248;57.652;11.908;2022-12-17T02:04:50;5.53;;;3.75;;
26612;SDS011;14248;57.652;11.908;2022-12-17T02:10:23;6.45;;;4.13;;
26612;SDS011;14248;57.652;11.908;2022-12-17T02:13:11;8.93;;;4.13;;
26612;SDS011;14248;57.652;11.908;2022-12-17T02:16:00;5.00;;;3.70;;
26612;SDS011;14248;57.652;11.908;2022-12-17T02:18:56;6.28;;;3.85;;
26612;SDS011;14248;57.652;11.908;2022-12-17T02:21:43;5.97;;;3.85;;
26612;SDS011;14248;57.652;11.908;2022-12-17T02:27:23;6.63;;;3.95;;
26612;SDS011;14248;57.652;11.908;2022-12-17T02:32:53;4.55;;;3.67;;
26612;SDS011;14248;57.652;11.908;2022-12-17T02:35:42;3.75;;;3.30;;
26612;SDS011;14248;57.652;11.908;2022-12-17T02:38:29;4.53;;;3.47;;
26612;SDS011;14248;57.652;11.908;2022-12-17T02:41:15;6.30;;;4.05;;
26612;SDS011;14248;57.652;11.908;2022-12-17T02:44:01;6.95;;;3.92;;
26612;SDS011;14248;57.652;11.908;2022-12-17T02:46:46;8.23;;;4.22;;
26612;SDS011;14248;57.652;11.908;2022-12-17T02:49:31;7.38;;;3.70;;
26612;SDS011;14248;57.652;11.908;2022-12-17T02:52:18;6.05;;;3.72;;
26612;SDS011;14248;57.652;11.908;2022-12-17T02:55:05;6.65;;;3.70;;
26612;SDS011;14248;57.652;11.908;2022-12-17T02:57:50;7.55;;;3.60;;
26612;SDS011;14248;57.652;11.908;2022-12-17T03:00:34;5.72;;;3.78;;
26612;SDS011;14248;57.652;11.908;2022-12-17T03:03:19;7.75;;;3.65;;
26612;SDS011;14248;57.652;11.908;2022-12-17T03:06:03;6.88;;;3.83;;
26612;SDS011;14248;57.652;11.908;2022-12-17T03:08:48;4.88;;;3.58;;
26612;SDS011;14248;57.652;11.908;2022-12-17T03:11:33;4.97;;;3.47;;
26612;SDS011;14248;57.652;11.908;2022-12-17T03:14:18;7.20;;;3.20;;
26612;SDS011;14248;57.652;11.908;2022-12-17T03:17:03;5.97;;;3.60;;
26612;SDS011;14248;57.652;11.908;2022-12-17T03:19:48;6.85;;;3.97;;
26612;SDS011;14248;57.652;11.908;2022-12-17T03:22:32;7.97;;;4.22;;
26612;SDS011;14248;57.652;11.908;2022-12-17T03:25:17;8.88;;;4.13;;
26612;SDS011;14248;57.652;11.908;2022-12-17T03:28:06;6.75;;;3.95;;
26612;SDS011;14248;57.652;11.908;2022-12-17T03:30:51;7.65;;;4.85;;
26612;SDS011;14248;57.652;11.908;2022-12-17T03:33:36;8.57;;;4.93;;
26612;SDS011;14248;57.652;11.908;2022-12-17T03:36:21;7.70;;;4.45;;
26612;SDS011;14248;57.652;11.908;2022-12-17T03:39:05;10.63;;;5.43;;
26612;SDS011;14248;57.652;11.908;2022-12-17T03:41:50;10.25;;;5.70;;
26612;SDS011;14248;57.652;11.908;2022-12-17T03:44:34;11.93;;;5.68;;
26612;SDS011;14248;57.652;11.908;2022-12-17T03:47:29;11.13;;;5.50;;
26612;SDS011;14248;57.652;11.908;2022-12-17T03:50:14;11.68;;;4.78;;
26612;SDS011;14248;57.652;11.908;2022-12-17T03:52:59;10.88;;;5.68;;
26612;SDS011;14248;57.652;11.908;2022-12-17T03:55:43;9.70;;;4.85;;
26612;SDS011;14248;57.652;11.908;2022-12-17T03:58:28;8.10;;;5.00;;
26612;SDS011;14248;57.652;11.908;2022-12-17T04:01:12;10.63;;;5.15;;
26612;SDS011;14248;57.652;11.908;2022-12-17T04:03:57;10.50;;;5.32;;
26612;SDS011;14248;57.652;11.908;2022-12-17T04:06:41;11.70;;;5.72;;
26612;SDS011;14248;57.652;11.908;2022-12-17T04:09:26;9.43;;;4.63;;
26612;SDS011;14248;57.652;11.908;2022-12-17T04:12:10;7.65;;;4.68;;
26612;SDS011;14248;57.652;11.908;2022-12-17T04:14:54;10.70;;;5.50;;
26612;SDS011;14248;57.652;11.908;2022-12-17T04:17:38;11.93;;;5.45;;
26612;SDS011;14248;57.652;11.908;2022-12-17T04:20:22;10.10;;;5.13;;
26612;SDS011;14248;57.652;11.908;2022-12-17T04:23:06;11.63;;;5.20;;
26612;SDS011;14248;57.652;11.908;2022-12-17T04:25:50;9.07;;;5.17;;
26612;SDS011;14248;57.652;11.908;2022-12-17T04:28:34;10.43;;;5.05;;
26612;SDS011;14248;57.652;11.908;2022-12-17T04:31:19;9.90;;;5.40;;
26612;SDS011;14248;57.652;11.908;2022-12-17T04:34:03;10.83;;;5.50;;
26612;SDS011;14248;57.652;11.908;2022-12-17T04:36:47;12.95;;;5.28;;
26612;SDS011;14248;57.652;11.908;2022-12-17T04:39:31;11.82;;;5.65;;
26612;SDS011;14248;57.652;11.908;2022-12-17T04:42:15;14.20;;;5.25;;
26612;SDS011;14248;57.652;11.908;2022-12-17T04:44:59;10.15;;;5.13;;
26612;SDS011;14248;57.652;11.908;2022-12-17T04:47:43;9.23;;;4.60;;
26612;SDS011;14248;57.652;11.908;2022-12-17T04:50:29;12.23;;;4.57;;
26612;SDS011;14248;57.652;11.908;2022-12-17T04:53:13;11.18;;;4.85;;
26612;SDS011;14248;57.652;11.908;2022-12-17T04:55:58;12.15;;;4.75;;
26612;SDS011;14248;57.652;11.908;2022-12-17T04:58:42;6.80;;;4.40;;
26612;SDS011;14248;57.652;11.908;2022-12-17T05:01:27;9.57;;;4.55;;
26612;SDS011;14248;57.652;11.908;2022-12-17T05:04:12;10.85;;;5.07;;
26612;SDS011;14248;57.652;11.908;2022-12-17T05:06:57;11.27;;;4.75;;
26612;SDS011;14248;57.652;11.908;2022-12-17T05:09:41;10.70;;;5.22;;
26612;SDS011;14248;57.652;11.908;2022-12-17T05:12:26;11.43;;;4.63;;
26612;SDS011;14248;57.652;11.908;2022-12-17T05:15:11;9.70;;;4.32;;
26612;SDS011;14248;57.652;11.908;2022-12-17T05:18:02;10.15;;;4.65;;
26612;SDS011;14248;57.652;11.908;2022-12-17T05:20:47;11.38;;;4.35;;
26612;SDS011;14248;57.652;11.908;2022-12-17T05:23:31;11.97;;;4.50;;
26612;SDS011;14248;57.652;11.908;2022-12-17T05:26:17;14.23;;;4.40;;
26612;SDS011;14248;57.652;11.908;2022-12-17T05:29:06;11.48;;;4.93;;
26612;SDS011;14248;57.652;11.908;2022-12-17T05:31:51;12.60;;;4.75;;
26612;SDS011;14248;57.652;11.908;2022-12-17T05:34:35;10.07;;;4.43;;
26612;SDS011;14248;57.652;11.908;2022-12-17T05:37:19;9.18;;;4.28;;
26612;SDS011;14248;57.652;11.908;2022-12-17T05:40:04;11.13;;;4.80;;
26612;SDS011;14248;57.652;11.908;2022-12-17T05:42:56;11.52;;;5.07;;
26612;SDS011;14248;57.652;11.908;2022-12-17T05:45:43;13.95;;;4.72;;
26612;SDS011;14248;57.652;11.908;2022-12-17T05:48:29;7.20;;;4.45;;
26612;SDS011;14248;57.652;11.908;2022-12-17T05:53:58;8.73;;;4.78;;
26612;SDS011;14248;57.652;11.908;2022-12-17T05:56:42;10.87;;;5.67;;
26612;SDS011;14248;57.652;11.908;2022-12-17T05:59:27;13.05;;;5.97;;
26612;SDS011;14248;57.652;11.908;2022-12-17T06:02:11;12.38;;;5.95;;
26612;SDS011;14248;57.652;11.908;2022-12-17T06:04:55;11.75;;;6.20;;
26612;SDS011;14248;57.652;11.908;2022-12-17T06:07:39;13.25;;;5.68;;
26612;SDS011;14248;57.652;11.908;2022-12-17T06:10:23;14.13;;;6.25;;
26612;SDS011;14248;57.652;11.908;2022-12-17T06:13:08;16.85;;;6.35;;
26612;SDS011;14248;57.652;11.908;2022-12-17T06:15:52;12.18;;;6.60;;
26612;SDS011;14248;57.652;11.908;2022-12-17T06:21:21;15.05;;;8.00;;
26612;SDS011;14248;57.652;11.908;2022-12-17T06:24:06;18.17;;;6.33;;
26612;SDS011;14248;57.652;11.908;2022-12-17T06:26:50;11.90;;;6.15;;
26612;SDS011;14248;57.652;11.908;2022-12-17T06:29:35;12.27;;;5.82;;
26612;SDS011;14248;57.652;11.908;2022-12-17T06:32:19;11.32;;;5.93;;
26612;SDS011;14248;57.652;11.908;2022-12-17T06:35:04;13.90;;;6.50;;
26612;SDS011;14248;57.652;11.908;2022-12-17T06:37:56;10.70;;;6.03;;
26612;SDS011;14248;57.652;11.908;2022-12-17T06:40:42;11.25;;;5.90;;
26612;SDS011;14248;57.652;11.908;2022-12-17T06:43:26;17.08;;;6.45;;
26612;SDS011;14248;57.652;11.908;2022-12-17T06:46:10;17.70;;;7.10;;
26612;SDS011;14248;57.652;11.908;2022-12-17T06:48:54;13.90;;;6.18;;
26612;SDS011;14248;57.652;11.908;2022-12-17T06:51:38;10.63;;;5.87;;
26612;SDS011;14248;57.652;11.908;2022-12-17T06:54:22;10.90;;;5.82;;
26612;SDS011;14248;57.652;11.908;2022-12-17T06:57:06;15.82;;;6.88;;
26612;SDS011;14248;57.652;11.908;2022-12-17T06:59:51;17.10;;;6.18;;
26612;SDS011;14248;57.652;11.908;2022-12-17T07:02:35;16.10;;;6.67;;
26612;SDS011;14248;57.652;11.908;2022-12-17T07:05:19;12.40;;;6.00;;
26612;SDS011;14248;57.652;11.908;2022-12-17T07:08:03;10.73;;;5.28;;
26612;SDS011;14248;57.652;11.908;2022-12-17T07:10:47;12.90;;;6.22;;
26612;SDS011;14248;57.652;11.908;2022-12-17T07:13:33;13.73;;;5.95;;
26612;SDS011;14248;57.652;11.908;2022-12-17T07:16:17;15.70;;;5.85;;
26612;SDS011;14248;57.652;11.908;2022-12-17T07:19:01;13.85;;;5.57;;
26612;SDS011;14248;57.652;11.908;2022-12-17T07:21:45;13.13;;;5.68;;
26612;SDS011;14248;57.652;11.908;2022-12-17T07:24:29;9.80;;;5.40;;
26612;SDS011;14248;57.652;11.908;2022-12-17T07:27:13;12.98;;;5.75;;
26612;SDS011;14248;57.652;11.908;2022-12-17T07:29:58;14.85;;;5.32;;
26612;SDS011;14248;57.652;11.908;2022-12-17T07:32:42;10.38;;;4.95;;
26612;SDS011;14248;57.652;11.908;2022-12-17T07:35:26;13.52;;;5.55;;
26612;SDS011;14248;57.652;11.908;2022-12-17T07:38:11;13.60;;;5.40;;
26612;SDS011;14248;57.652;11.908;2022-12-17T07:40:59;13.48;;;5.75;;
26612;SDS011;14248;57.652;11.908;2022-12-17T07:43:44;16.75;;;5.85;;
26612;SDS011;14248;57.652;11.908;2022-12-17T07:46:28;13.70;;;5.22;;
26612;SDS011;14248;57.652;11.908;2022-12-17T07:49:12;13.03;;;5.27;;
26612;SDS011;14248;57.652;11.908;2022-12-17T07:51:56;16.08;;;5.85;;
26612;SDS011;14248;57.652;11.908;2022-12-17T07:54:43;12.45;;;5.43;;
26612;SDS011;14248;57.652;11.908;2022-12-17T07:57:28;11.80;;;5.80;;
26612;SDS011;14248;57.652;11.908;2022-12-17T08:00:12;13.68;;;5.07;;
26612;SDS011;14248;57.652;11.908;2022-12-17T08:02:58;13.55;;;5.35;;
26612;SDS011;14248;57.652;11.908;2022-12-17T08:05:43;14.98;;;6.32;;
26612;SDS011;14248;57.652;11.908;2022-12-17T08:08:28;16.75;;;6.38;;
26612;SDS011;14248;57.652;11.908;2022-12-17T08:11:12;18.40;;;7.10;;
26612;SDS011;14248;57.652;11.908;2022-12-17T08:13:56;16.52;;;7.05;;
26612;SDS011;14248;57.652;11.908;2022-12-17T08:16:40;19.00;;;8.32;;
26612;SDS011;14248;57.652;11.908;2022-12-17T08:19:24;17.70;;;8.75;;
26612;SDS011;14248;57.652;11.908;2022-12-17T08:22:25;20.48;;;9.82;;
26612;SDS011;14248;57.652;11.908;2022-12-17T08:25:09;18.35;;;10.25;;
26612;SDS011;14248;57.652;11.908;2022-12-17T08:27:55;23.90;;;11.48;;
26612;SDS011;14248;57.652;11.908;2022-12-17T08:30:46;24.63;;;12.00;;
26612;SDS011;14248;57.652;11.908;2022-12-17T08:33:33;22.52;;;11.27;;
26612;SDS011;14248;57.652;11.908;2022-12-17T08:36:17;24.33;;;12.10;;
26612;SDS011;14248;57.652;11.908;2022-12-17T08:39:02;24.40;;;11.65;;
26612;SDS011;14248;57.652;11.908;2022-12-17T08:41:47;25.38;;;11.93;;
26612;SDS011;14248;57.652;11.908;2022-12-17T08:44:31;21.70;;;10.75;;
26612;SDS011;14248;57.652;11.908;2022-12-17T08:47:15;19.13;;;11.25;;
26612;SDS011;14248;57.652;11.908;2022-12-17T08:50:02;21.65;;;12.05;;
26612;SDS011;14248;57.652;11.908;2022-12-17T08:52:48;20.80;;;11.63;;
26612;SDS011;14248;57.652;11.908;2022-12-17T08:55:33;24.83;;;12.27;;
26612;SDS011;14248;57.652;11.908;2022-12-17T08:58:17;22.80;;;11.52;;
26612;SDS011;14248;57.652;11.908;2022-12-17T09:01:02;28.70;;;13.32;;
26612;SDS011;14248;57.652;11.908;2022-12-17T09:03:46;22.23;;;12.75;;
26612;SDS011;14248;57.652;11.908;2022-12-17T09:06:30;25.38;;;12.73;;
26612;SDS011;14248;57.652;11.908;2022-12-17T09:09:15;25.88;;;13.00;;
26612;SDS011;14248;57.652;11.908;2022-12-17T09:12:00;22.55;;;12.45;;
26612;SDS011;14248;57.652;11.908;2022-12-17T09:14:44;26.23;;;14.18;;
26612;SDS011;14248;57.652;11.908;2022-12-17T09:17:28;26.07;;;14.17;;
26612;SDS011;14248;57.652;11.908;2022-12-17T09:20:12;27.25;;;14.07;;
26612;SDS011;14248;57.652;11.908;2022-12-17T09:22:56;28.23;;;14.87;;
26612;SDS011;14248;57.652;11.908;2022-12-17T09:25:41;25.80;;;13.88;;
26612;SDS011;14248;57.652;11.908;2022-12-17T09:28:25;29.80;;;14.52;;
26612;SDS011;14248;57.652;11.908;2022-12-17T09:31:10;31.73;;;16.30;;
26612;SDS011;14248;57.652;11.908;2022-12-17T09:33:54;30.17;;;15.95;;
26612;SDS011;14248;57.652;11.908;2022-12-17T09:36:38;33.28;;;16.27;;
26612;SDS011;14248;57.652;11.908;2022-12-17T09:39:22;35.22;;;18.83;;
26612;SDS011;14248;57.652;11.908;2022-12-17T09:42:12;34.40;;;16.63;;
26612;SDS011;14248;57.652;11.908;2022-12-17T09:45:21;29.85;;;15.70;;
26612;SDS011;14248;57.652;11.908;2022-12-17T09:51:22;30.75;;;16.30;;
26612;SDS011;14248;57.652;11.908;2022-12-17T09:54:24;30.02;;;15.20;;
26612;SDS011;14248;57.652;11.908;2022-12-17T09:57:23;33.22;;;16.45;;
26612;SDS011;14248;57.652;11.908;2022-12-17T10:00:14;30.00;;;17.40;;
26612;SDS011;14248;57.652;11.908;2022-12-17T10:03:08;30.23;;;16.27;;
26612;SDS011;14248;57.652;11.908;2022-12-17T10:06:07;31.17;;;17.33;;
26612;SDS011;14248;57.652;11.908;2022-12-17T10:08:58;33.05;;;17.65;;
26612;SDS011;14248;57.652;11.908;2022-12-17T10:11:44;33.70;;;18.08;;
26612;SDS011;14248;57.652;11.908;2022-12-17T10:14:29;31.00;;;17.45;;
26612;SDS011;14248;57.652;11.908;2022-12-17T10:17:14;32.63;;;17.83;;
26612;SDS011;14248;57.652;11.908;2022-12-17T10:20:07;32.58;;;17.70;;
26612;SDS011;14248;57.652;11.908;2022-12-17T10:23:05;35.05;;;18.45;;
26612;SDS011;14248;57.652;11.908;2022-12-17T10:25:50;33.78;;;17.65;;
26612;SDS011;14248;57.652;11.908;2022-12-17T10:28:36;34.63;;;18.35;;
26612;SDS011;14248;57.652;11.908;2022-12-17T10:31:20;32.50;;;19.85;;
26612;SDS011;14248;57.652;11.908;2022-12-17T10:34:06;32.92;;;19.02;;
26612;SDS011;14248;57.652;11.908;2022-12-17T10:36:57;38.95;;;23.30;;
26612;SDS011;14248;57.652;11.908;2022-12-17T10:39:41;35.67;;;20.07;;
26612;SDS011;14248;57.652;11.908;2022-12-17T10:42:26;34.03;;;19.45;;
26612;SDS011;14248;57.652;11.908;2022-12-17T10:48:16;34.88;;;18.95;;
26612;SDS011;14248;57.652;11.908;2022-12-17T10:51:01;35.40;;;20.10;;
26612;SDS011;14248;57.652;11.908;2022-12-17T10:53:49;35.65;;;19.42;;
26612;SDS011;14248;57.652;11.908;2022-12-17T10:56:35;35.63;;;19.58;;
26612;SDS011;14248;57.652;11.908;2022-12-17T10:59:36;36.53;;;20.42;;
26612;SDS011;14248;57.652;11.908;2022-12-17T11:02:25;32.22;;;19.52;;
26612;SDS011;14248;57.652;11.908;2022-12-17T11:05:34;39.05;;;20.20;;
26612;SDS011;14248;57.652;11.908;2022-12-17T11:08:17;38.17;;;20.58;;
26612;SDS011;14248;57.652;11.908;2022-12-17T11:11:06;36.88;;;20.10;;
26612;SDS011;14248;57.652;11.908;2022-12-17T11:13:54;37.35;;;21.02;;
26612;SDS011;14248;57.652;11.908;2022-12-17T11:16:48;35.17;;;21.40;;
26612;SDS011;14248;57.652;11.908;2022-12-17T11:22:35;36.85;;;20.25;;
26612;SDS011;14248;57.652;11.908;2022-12-17T11:28:42;45.40;;;22.55;;
26612;SDS011;14248;57.652;11.908;2022-12-17T11:34:37;41.45;;;21.13;;
26612;SDS011;14248;57.652;11.908;2022-12-17T11:40:47;36.22;;;20.75;;
26612;SDS011;14248;57.652;11.908;2022-12-17T11:53:09;34.13;;;19.75;;
26612;SDS011;14248;57.652;11.908;2022-12-17T11:56:44;34.38;;;17.83;;
26612;SDS011;14248;57.652;11.908;2022-12-17T11:59:33;35.75;;;18.73;;
26612;SDS011;14248;57.652;11.908;2022-12-17T12:09:14;36.28;;;18.38;;
26612;SDS011;14248;57.652;11.908;2022-12-17T12:15:07;40.85;;;19.75;;
26612;SDS011;14248;57.652;11.908;2022-12-17T12:24:02;35.53;;;19.33;;
26612;SDS011;14248;57.652;11.908;2022-12-17T12:30:40;36.72;;;19.08;;
26612;SDS011;14248;57.652;11.908;2022-12-17T12:36:26;36.85;;;18.88;;
26612;SDS011;14248;57.652;11.908;2022-12-17T12:39:33;36.60;;;19.02;;
26612;SDS011;14248;57.652;11.908;2022-12-17T12:54:18;30.27;;;17.10;;
26612;SDS011;14248;57.652;11.908;2022-12-17T12:57:23;37.22;;;18.75;;
26612;SDS011;14248;57.652;11.908;2022-12-17T13:00:20;37.15;;;18.65;;
26612;SDS011;14248;57.652;11.908;2022-12-17T13:03:07;36.10;;;17.70;;
26612;SDS011;14248;57.652;11.908;2022-12-17T13:06:00;35.37;;;17.57;;
26612;SDS011;14248;57.652;11.908;2022-12-17T13:08:26;35.00;;;17.58;;
26612;SDS011;14248;57.652;11.908;2022-12-17T13:10:52;35.75;;;18.40;;
26612;SDS011;14248;57.652;11.908;2022-12-17T13:15:51;35.50;;;17.83;;
26612;SDS011;14248;57.652;11.908;2022-12-17T13:20:54;34.10;;;16.85;;
26612;SDS011;14248;57.652;11.908;2022-12-17T13:23:34;34.47;;;17.40;;
26612;SDS011;14248;57.652;11.908;2022-12-17T13:28:39;33.70;;;16.70;;
26612;SDS011;14248;57.652;11.908;2022-12-17T13:31:17;32.50;;;16.42;;
26612;SDS011;14248;57.652;11.908;2022-12-17T13:37:41;40.83;;;17.65;;
26612;SDS011;14248;57.652;11.908;2022-12-17T13:39:51;38.70;;;17.58;;
26612;SDS011;14248;57.652;11.908;2022-12-17T13:42:43;33.83;;;17.08;;
26612;SDS011;14248;57.652;11.908;2022-12-17T13:45:13;36.08;;;18.08;;
26612;SDS011;14248;57.652;11.908;2022-12-17T13:47:41;35.05;;;17.45;;
26612;SDS011;14248;57.652;11.908;2022-12-17T13:50:20;34.95;;;17.38;;
26612;SDS011;14248;57.652;11.908;2022-12-17T13:52:47;31.80;;;16.98;;
26612;SDS011;14248;57.652;11.908;2022-12-17T13:55:20;33.42;;;17.50;;
26612;SDS011;14248;57.652;11.908;2022-12-17T13:57:50;31.35;;;16.63;;
26612;SDS011;14248;57.652;11.908;2022-12-17T14:00:26;31.77;;;16.98;;
26612;SDS011;14248;57.652;11.908;2022-12-17T14:02:54;32.80;;;17.25;;
26612;SDS011;14248;57.652;11.908;2022-12-17T14:08:06;34.80;;;17.65;;
26612;SDS011;14248;57.652;11.908;2022-12-17T14:10:32;34.97;;;17.15;;
26612;SDS011;14248;57.652;11.908;2022-12-17T14:13:04;36.45;;;17.77;;
26612;SDS011;14248;57.652;11.908;2022-12-17T14:15:34;37.80;;;16.70;;
26612;SDS011;14248;57.652;11.908;2022-12-17T14:18:00;32.78;;;16.95;;
26612;SDS011;14248;57.652;11.908;2022-12-17T14:20:31;33.22;;;16.92;;
26612;SDS011;14248;57.652;11.908;2022-12-17T14:23:33;30.70;;;16.20;;
26612;SDS011;14248;57.652;11.908;2022-12-17T14:25:53;33.50;;;17.05;;
26612;SDS011;14248;57.652;11.908;2022-12-17T14:30:48;32.22;;;16.30;;
26612;SDS011;14248;57.652;11.908;2022-12-17T14:33:24;33.25;;;16.05;;
26612;SDS011;14248;57.652;11.908;2022-12-17T14:35:53;36.10;;;18.83;;
26612;SDS011;14248;57.652;11.908;2022-12-17T14:38:22;32.58;;;16.85;;
26612;SDS011;14248;57.652;11.908;2022-12-17T14:40:49;30.27;;;15.18;;
26612;SDS011;14248;57.652;11.908;2022-12-17T14:43:15;27.05;;;14.52;;
26612;SDS011;14248;57.652;11.908;2022-12-17T14:45:47;30.75;;;15.45;;
26612;SDS011;14248;57.652;11.908;2022-12-17T14:48:36;31.58;;;15.63;;
26612;SDS011;14248;57.652;11.908;2022-12-17T14:51:27;33.72;;;15.98;;
26612;SDS011;14248;57.652;11.908;2022-12-17T14:54:03;34.33;;;16.23;;
26612;SDS011;14248;57.652;11.908;2022-12-17T14:56:53;30.60;;;15.85;;
26612;SDS011;14248;57.652;11.908;2022-12-17T14:59:30;35.03;;;16.08;;
26612;SDS011;14248;57.652;11.908;2022-12-17T15:01:58;31.13;;;15.25;;
26612;SDS011;14248;57.652;11.908;2022-12-17T15:04:26;31.08;;;15.85;;
26612;SDS011;14248;57.652;11.908;2022-12-17T15:06:53;33.40;;;15.50;;
26612;SDS011;14248;57.652;11.908;2022-12-17T15:09:20;34.03;;;15.13;;
26612;SDS011;14248;57.652;11.908;2022-12-17T15:11:46;33.25;;;16.08;;
26612;SDS011;14248;57.652;11.908;2022-12-17T15:14:11;35.63;;;16.45;;
26612;SDS011;14248;57.652;11.908;2022-12-17T15:16:37;34.53;;;17.00;;
26612;SDS011;14248;57.652;11.908;2022-12-17T15:19:03;30.95;;;16.05;;
26612;SDS011;14248;57.652;11.908;2022-12-17T15:21:28;29.45;;;15.20;;
26612;SDS011;14248;57.652;11.908;2022-12-17T15:23:54;34.53;;;16.13;;
26612;SDS011;14248;57.652;11.908;2022-12-17T15:26:20;32.40;;;15.82;;
26612;SDS011;14248;57.652;11.908;2022-12-17T15:28:45;29.20;;;15.40;;
26612;SDS011;14248;57.652;11.908;2022-12-17T15:31:12;33.10;;;15.48;;
26612;SDS011;14248;57.652;11.908;2022-12-17T15:33:39;30.10;;;15.63;;
26612;SDS011;14248;57.652;11.908;2022-12-17T15:36:06;27.98;;;14.65;;
26612;SDS011;14248;57.652;11.908;2022-12-17T15:38:32;26.73;;;15.13;;
26612;SDS011;14248;57.652;11.908;2022-12-17T15:41:01;30.90;;;13.98;;
26612;SDS011;14248;57.652;11.908;2022-12-17T15:43:47;28.98;;;14.57;;
26612;SDS011;14248;57.652;11.908;2022-12-17T15:46:13;24.48;;;13.23;;
26612;SDS011;14248;57.652;11.908;2022-12-17T15:48:40;26.80;;;13.43;;
26612;SDS011;14248;57.652;11.908;2022-12-17T15:51:05;28.63;;;14.23;;
26612;SDS011;14248;57.652;11.908;2022-12-17T15:53:31;27.00;;;12.88;;
26612;SDS011;14248;57.652;11.908;2022-12-17T15:56:00;32.72;;;14.40;;
26612;SDS011;14248;57.652;11.908;2022-12-17T15:58:27;31.15;;;15.02;;
26612;SDS011;14248;57.652;11.908;2022-12-17T16:00:53;31.17;;;14.25;;
26612;SDS011;14248;57.652;11.908;2022-12-17T16:03:19;29.95;;;14.32;;
26612;SDS011;14248;57.652;11.908;2022-12-17T16:05:45;29.08;;;13.48;;
26612;SDS011;14248;57.652;11.908;2022-12-17T16:08:10;25.05;;;13.02;;
26612;SDS011;14248;57.652;11.908;2022-12-17T16:10:36;29.60;;;14.00;;
26612;SDS011;14248;57.652;11.908;2022-12-17T16:13:03;28.48;;;13.63;;
26612;SDS011;14248;57.652;11.908;2022-12-17T16:15:28;25.52;;;14.18;;
26612;SDS011;14248;57.652;11.908;2022-12-17T16:17:54;28.40;;;14.77;;
26612;SDS011;14248;57.652;11.908;2022-12-17T16:20:20;30.85;;;14.40;;
26612;SDS011;14248;57.652;11.908;2022-12-17T16:22:46;31.77;;;14.95;;
26612;SDS011;14248;57.652;11.908;2022-12-17T16:25:12;29.27;;;14.63;;
26612;SDS011;14248;57.652;11.908;2022-12-17T16:27:41;31.65;;;13.90;;
26612;SDS011;14248;57.652;11.908;2022-12-17T16:30:07;28.25;;;13.85;;
26612;SDS011;14248;57.652;11.908;2022-12-17T16:32:35;29.75;;;14.77;;
26612;SDS011;14248;57.652;11.908;2022-12-17T16:35:00;30.10;;;13.68;;
26612;SDS011;14248;57.652;11.908;2022-12-17T16:37:26;32.58;;;14.05;;
26612;SDS011;14248;57.652;11.908;2022-12-17T16:39:52;28.98;;;14.02;;
26612;SDS011;14248;57.652;11.908;2022-12-17T16:42:18;26.60;;;13.52;;
26612;SDS011;14248;57.652;11.908;2022-12-17T16:44:43;33.38;;;14.07;;
26612;SDS011;14248;57.652;11.908;2022-12-17T16:47:09;34.55;;;14.45;;
26612;SDS011;14248;57.652;11.908;2022-12-17T16:49:35;30.30;;;14.35;;
26612;SDS011;14248;57.652;11.908;2022-12-17T16:52:00;27.58;;;13.73;;
26612;SDS011;14248;57.652;11.908;2022-12-17T16:54:28;31.83;;;14.93;;
26612;SDS011;14248;57.652;11.908;2022-12-17T16:56:55;25.25;;;13.80;;
26612;SDS011;14248;57.652;11.908;2022-12-17T16:59:21;28.60;;;14.32;;
26612;SDS011;14248;57.652;11.908;2022-12-17T17:01:48;33.05;;;14.90;;
26612;SDS011;14248;57.652;11.908;2022-12-17T17:04:15;29.23;;;14.18;;
26612;SDS011;14248;57.652;11.908;2022-12-17T17:06:44;35.53;;;15.15;;
26612;SDS011;14248;57.652;11.908;2022-12-17T17:09:12;27.23;;;13.65;;
26612;SDS011;14248;57.652;11.908;2022-12-17T17:11:38;31.42;;;14.85;;
26612;SDS011;14248;57.652;11.908;2022-12-17T17:14:04;31.67;;;14.25;;
26612;SDS011;14248;57.652;11.908;2022-12-17T17:16:31;28.73;;;13.38;;
26612;SDS011;14248;57.652;11.908;2022-12-17T17:18:58;33.28;;;14.65;;